Time;durP1;ratioP1;P1;durP2;ratioP2;P2;SDS_P1;SDS_P2;PMS_P1;PMS_P2;Temp;Humidity;BMP_temperature;BMP_pressure;BME280_temperature;BME280_humidity;BME280_pressure;Samples;Min_cycle;Max_cycle;Signal;HPM_P1;HPM_P2
2022/05/18 00:00:27;;;;;;;17.95;16.45;;;;;;;8.76;97.10;99727.13;2034094;29;20228;-69
2022/05/18 00:01:29;;;;;;;17.13;16.00;;;;;;;8.82;96.01;99729.78;2040319;29;20205;-69
2022/05/18 00:02:30;;;;;;;17.35;16.08;;;;;;;8.76;96.32;99728.97;2034279;29;20210;-69
2022/05/18 00:03:40;;;;;;;16.53;15.33;;;;;;;8.75;96.83;99732.72;2034041;29;20295;-69
2022/05/18 00:04:43;;;;;;;17.85;16.38;;;;;;;8.76;96.05;99734.31;2035520;29;20263;-69
2022/05/18 00:05:46;;;;;;;17.40;16.15;;;;;;;8.74;96.32;99728.47;2042664;29;20188;-69
2022/05/18 00:06:46;;;;;;;17.65;16.30;;;;;;;8.72;96.17;99730.59;2042244;29;20230;-70
2022/05/18 00:07:49;;;;;;;17.53;16.07;;;;;;;8.71;95.79;99739.66;2033438;29;20236;-69
2022/05/18 00:08:52;;;;;;;17.90;16.42;;;;;;;8.73;94.19;99750.81;2034198;29;20276;-70
2022/05/18 00:09:54;;;;;;;17.95;16.30;;;;;;;8.71;92.76;99740.44;2033038;29;20706;-69
2022/05/18 00:10:56;;;;;;;16.65;15.50;;;;;;;8.74;93.62;99741.75;2034096;29;20198;-69
2022/05/18 00:11:59;;;;;;;17.38;15.90;;;;;;;8.76;94.05;99745.75;2042441;29;20295;-69
2022/05/18 00:13:00;;;;;;;17.50;16.38;;;;;;;8.74;93.23;99742.56;2033986;29;20300;-69
2022/05/18 00:14:02;;;;;;;19.37;17.40;;;;;;;8.70;92.60;99746.03;2034070;29;20277;-69
2022/05/18 00:15:04;;;;;;;17.20;16.00;;;;;;;8.66;92.43;99751.06;2033992;29;20709;-69
2022/05/18 00:16:07;;;;;;;17.85;16.50;;;;;;;8.77;91.03;99760.66;2033836;29;20259;-70
2022/05/18 00:17:10;;;;;;;17.65;16.35;;;;;;;8.81;90.04;99763.59;2041956;29;20199;-69
2022/05/18 00:18:13;;;;;;;17.52;16.02;;;;;;;8.79;90.78;99755.06;2042512;29;20226;-70
2022/05/18 00:19:16;;;;;;;17.00;15.80;;;;;;;8.73;91.26;99754.28;2041741;29;20690;-70
2022/05/18 00:20:18;;;;;;;17.52;16.20;;;;;;;8.73;91.30;99758.78;2041668;29;20591;-70
2022/05/18 00:21:19;;;;;;;17.75;16.17;;;;;;;8.65;91.56;99759.31;2033509;29;20334;-69
2022/05/18 00:22:21;;;;;;;17.90;16.53;;;;;;;8.60;91.84;99752.16;2033341;29;20332;-70
2022/05/18 00:23:23;;;;;;;17.90;16.50;;;;;;;8.57;92.18;99759.84;2033931;29;20242;-69
2022/05/18 00:24:26;;;;;;;17.83;16.10;;;;;;;8.57;92.06;99757.19;2041854;29;20684;-70
2022/05/18 00:25:30;;;;;;;17.65;16.35;;;;;;;8.53;91.78;99761.44;2042523;29;20195;-69
2022/05/18 00:26:32;;;;;;;17.17;15.98;;;;;;;8.49;92.33;99756.66;2042494;29;20215;-69
2022/05/18 00:27:34;;;;;;;17.83;16.63;;;;;;;8.47;92.63;99768.63;2033047;29;20224;-69
2022/05/18 00:28:36;;;;;;;18.05;16.60;;;;;;;8.42;92.85;99761.41;2033836;29;20196;-69
2022/05/18 00:29:37;;;;;;;17.77;16.35;;;;;;;8.41;93.17;99759.03;2042256;29;20195;-70
2022/05/18 00:30:42;;;;;;;17.50;16.30;;;;;;;8.36;93.58;99765.16;2042535;29;20709;-69
2022/05/18 00:31:46;;;;;;;18.55;17.10;;;;;;;8.32;94.11;99768.56;2042299;29;20250;-70
2022/05/18 00:32:50;;;;;;;18.38;16.63;;;;;;;8.31;94.98;99766.97;2042316;29;20195;-69
2022/05/18 00:33:51;;;;;;;17.60;16.15;;;;;;;8.26;95.51;99772.28;2042240;29;20210;-69
2022/05/18 00:34:52;;;;;;;17.97;16.67;;;;;;;8.23;96.00;99763.75;2042103;29;20195;-70
2022/05/18 00:35:53;;;;;;;17.55;15.98;;;;;;;8.23;96.64;99765.63;2041917;29;20509;-70
2022/05/18 00:36:55;;;;;;;17.70;16.40;;;;;;;8.21;97.66;99767.75;2042291;29;20241;-69
2022/05/18 00:37:56;;;;;;;17.00;15.70;;;;;;;8.18;98.29;99770.94;2042260;29;20653;-69
2022/05/18 00:38:58;;;;;;;16.60;15.30;;;;;;;8.13;98.41;99770.91;2033739;29;20196;-69
2022/05/18 00:40:01;;;;;;;18.20;16.50;;;;;;;8.12;98.52;99775.44;2041756;29;20602;-69
2022/05/18 00:41:03;;;;;;;21.52;16.48;;;;;;;8.10;99.04;99776.75;2049532;29;20248;-69
2022/05/18 00:42:04;;;;;;;17.63;16.13;;;;;;;8.13;99.26;99778.88;2033681;29;20208;-69
2022/05/18 00:43:16;;;;;;;16.83;15.48;;;;;;;8.08;98.95;99774.38;2033703;29;20210;-69
2022/05/18 00:44:18;;;;;;;17.23;15.60;;;;;;;8.09;98.81;99783.13;2035149;29;20187;-69
2022/05/18 00:45:19;;;;;;;17.90;16.60;;;;;;;8.15;99.37;99784.72;2033529;29;20211;-70
2022/05/18 00:46:22;;;;;;;17.20;15.90;;;;;;;8.20;96.84;99788.22;2033814;29;20223;-69
2022/05/18 00:47:24;;;;;;;17.52;15.95;;;;;;;8.35;95.17;99799.97;2041107;29;20210;-68
2022/05/18 00:48:26;;;;;;;17.45;16.13;;;;;;;8.56;91.66;99811.44;2041000;29;20662;-69
2022/05/18 00:49:26;;;;;;;16.50;15.45;;;;;;;8.73;90.01;99819.97;2042271;29;20554;-69
2022/05/18 00:50:32;;;;;;;17.73;16.20;;;;;;;8.89;85.92;99826.91;2042299;29;20274;-69
2022/05/18 00:51:37;;;;;;;17.10;15.88;;;;;;;8.88;87.47;99817.34;2041910;29;20223;-69
2022/05/18 00:52:42;;;;;;;16.42;15.23;;;;;;;8.92;85.03;99830.91;2042058;29;20223;-70
2022/05/18 00:53:48;;;;;;;17.23;15.80;;;;;;;8.92;83.15;99830.91;2033524;29;20212;-69
2022/05/18 00:54:51;;;;;;;17.85;16.30;;;;;;;8.86;83.50;99832.78;2026420;29;20353;-69
2022/05/18 00:55:56;;;;;;;18.00;16.50;;;;;;;8.80;85.09;99828.50;2034022;29;20199;-69
2022/05/18 00:57:02;;;;;;;17.20;15.90;;;;;;;8.78;84.32;99828.78;2042098;29;20187;-69
2022/05/18 00:58:09;;;;;;;18.10;16.70;;;;;;;8.87;81.63;99837.03;2042072;29;20199;-70
2022/05/18 00:59:15;;;;;;;17.40;16.10;;;;;;;8.81;80.67;99838.09;2042187;29;20194;-69
2022/05/18 01:00:19;;;;;;;17.73;16.52;;;;;;;8.74;82.17;99840.19;2042143;29;20269;-69
2022/05/18 01:01:21;;;;;;;19.33;16.90;;;;;;;8.67;82.53;99844.97;2042005;29;20195;-69
2022/05/18 01:02:22;;;;;;;17.95;16.35;;;;;;;8.78;79.77;99857.25;2033571;29;20203;-69
2022/05/18 01:03:25;;;;;;;16.92;15.82;;;;;;;8.73;78.98;99854.56;2033656;29;20726;-69
2022/05/18 01:04:26;;;;;;;17.45;16.35;;;;;;;8.75;79.96;99860.41;2033247;29;20243;-69
2022/05/18 01:05:32;;;;;;;18.17;16.30;;;;;;;8.73;78.87;99862.53;2033696;29;20291;-70
2022/05/18 01:06:35;;;;;;;17.17;15.57;;;;;;;8.72;77.84;99863.63;2041822;29;20226;-69
2022/05/18 01:07:42;;;;;;;16.45;15.15;;;;;;;8.66;81.64;99848.69;2042055;29;20198;-70
2022/05/18 01:08:48;;;;;;;17.02;15.55;;;;;;;8.60;81.07;99855.88;2032789;29;20274;-69
2022/05/18 01:09:50;;;;;;;16.45;15.25;;;;;;;8.61;80.43;99856.69;2034474;29;20191;-69
2022/05/18 01:10:51;;;;;;;16.60;15.40;;;;;;;8.56;79.10;99865.44;2042019;29;20199;-69
2022/05/18 01:11:53;;;;;;;17.00;15.40;;;;;;;8.56;78.24;99876.06;2033505;29;20206;-69
2022/05/18 01:12:54;;;;;;;17.25;15.85;;;;;;;8.54;79.20;99867.56;2033697;29;20698;-69
2022/05/18 01:13:58;;;;;;;19.98;16.05;;;;;;;8.53;80.31;99871.28;2041295;29;20225;-69
2022/05/18 01:15:02;;;;;;;17.13;15.50;;;;;;;8.46;80.44;99868.88;2041396;29;20218;-69
2022/05/18 01:16:05;;;;;;;16.85;15.35;;;;;;;8.41;81.70;99858.22;2041334;29;20327;-69
2022/05/18 01:17:07;;;;;;;17.13;15.82;;;;;;;8.55;77.59;99881.66;2033501;29;20207;-69
2022/05/18 01:18:08;;;;;;;17.30;15.97;;;;;;;8.50;76.83;99887.75;2025060;29;20307;-69
2022/05/18 01:19:16;;;;;;;17.58;16.15;;;;;;;8.43;77.02;99884.56;2033628;29;20739;-69
2022/05/18 01:20:24;;;;;;;17.65;16.20;;;;;;;8.32;79.92;99870.38;2042116;29;20171;-70
2022/05/18 01:21:37;;;;;;;17.50;16.20;;;;;;;8.38;77.53;99882.66;2041663;29;20219;-69
2022/05/18 01:22:46;;;;;;;17.33;16.05;;;;;;;8.42;75.97;99898.91;2033528;29;20188;-69
2022/05/18 01:23:53;;;;;;;17.88;16.27;;;;;;;8.44;74.72;99886.97;2034559;29;20184;-69
2022/05/18 01:24:59;;;;;;;16.95;15.65;;;;;;;8.55;74.11;99886.97;2041982;29;20475;-69
2022/05/18 01:26:14;;;;;;;17.55;16.13;;;;;;;8.48;74.20;99897.84;2042194;29;20623;-69
2022/05/18 01:27:17;;;;;;;16.63;15.18;;;;;;;8.36;74.93;99891.97;2041976;29;20653;-69
2022/05/18 01:28:19;;;;;;;17.50;16.13;;;;;;;8.38;74.36;99895.97;2040905;29;20262;-70
2022/05/18 01:29:23;;;;;;;17.77;16.23;;;;;;;8.32;75.11;99899.63;2041380;29;20219;-69
2022/05/18 01:30:27;;;;;;;17.95;16.65;;;;;;;8.33;76.40;99900.44;2042128;29;20290;-69
2022/05/18 01:31:47;;;;;;;23.40;16.27;;;;;;;8.24;76.01;99892.16;2033007;29;20208;-70
2022/05/18 01:32:51;;;;;;;17.45;16.15;;;;;;;8.17;75.15;99900.38;2028090;29;20204;-69
2022/05/18 01:33:53;;;;;;;17.17;16.02;;;;;;;8.17;77.61;99894.28;2033915;29;20195;-69
2022/05/18 01:34:54;;;;;;;16.30;15.30;;;;;;;8.11;78.15;99900.63;2041728;29;20742;-69
2022/05/18 01:35:56;;;;;;;17.77;16.20;;;;;;;8.02;77.97;99899.50;2032618;29;20636;-69
2022/05/18 01:36:59;;;;;;;17.00;15.90;;;;;;;7.91;79.67;99891.47;2025902;29;20215;-69
2022/05/18 01:38:01;;;;;;;17.83;16.27;;;;;;;7.83;80.51;99899.94;2034035;29;20690;-69
2022/05/18 01:39:02;;;;;;;17.63;16.15;;;;;;;7.77;81.22;99892.19;2033035;29;20671;-69
2022/05/18 01:40:08;;;;;;;16.65;15.45;;;;;;;7.69;81.46;99895.31;2033374;29;20196;-69
2022/05/18 01:41:16;;;;;;;16.77;15.70;;;;;;;7.61;82.37;99893.94;2034228;29;20227;-69
2022/05/18 01:42:23;;;;;;;19.20;16.20;;;;;;;7.53;82.90;99899.72;2041192;29;20191;-69
2022/05/18 01:43:28;;;;;;;17.15;15.38;;;;;;;7.54;83.48;99902.13;2041622;29;20210;-70
2022/05/18 01:44:30;;;;;;;16.05;14.93;;;;;;;7.51;82.66;99902.66;2041895;29;20186;-69
2022/05/18 01:45:32;;;;;;;16.70;15.50;;;;;;;7.45;83.81;99900.19;2033377;29;20331;-70
2022/05/18 01:46:33;;;;;;;16.80;15.30;;;;;;;7.37;84.76;99902.25;2025651;29;20200;-69
2022/05/18 01:47:37;;;;;;;16.63;15.30;;;;;;;7.34;85.75;99900.13;2025618;29;20235;-70
2022/05/18 01:48:40;;;;;;;16.20;15.10;;;;;;;7.29;86.07;99900.06;2033998;29;20199;-70
2022/05/18 01:49:45;;;;;;;17.15;15.68;;;;;;;7.31;86.30;99900.66;2033346;29;20725;-69
2022/05/18 01:50:47;;;;;;;16.45;15.18;;;;;;;7.41;82.54;99912.41;2033738;29;20218;-69
2022/05/18 01:51:51;;;;;;;16.63;15.32;;;;;;;7.33;83.14;99903.84;2032866;29;20343;-69
2022/05/18 01:52:51;;;;;;;18.60;17.02;;;;;;;7.28;83.95;99905.63;2025710;29;20200;-70
2022/05/18 01:53:56;;;;;;;16.40;15.30;;;;;;;7.22;84.74;99907.47;2033454;29;20275;-69
2022/05/18 01:54:57;;;;;;;16.73;15.30;;;;;;;7.16;85.69;99910.31;2041855;29;20195;-69
2022/05/18 01:55:59;;;;;;;17.40;15.67;;;;;;;7.12;86.98;99899.41;2041850;29;20195;-69
2022/05/18 01:57:00;;;;;;;16.33;15.07;;;;;;;7.05;87.15;99902.28;2033290;29;20718;-70
2022/05/18 01:58:06;;;;;;;16.57;15.50;;;;;;;7.09;86.60;99910.53;2033545;29;20584;-69
2022/05/18 01:59:07;;;;;;;17.20;15.85;;;;;;;7.04;85.71;99907.84;2040361;29;20307;-69
2022/05/18 02:00:11;;;;;;;17.70;16.20;;;;;;;7.16;84.70;99910.31;2042118;29;20202;-69
2022/05/18 02:01:15;;;;;;;17.00;15.70;;;;;;;7.21;83.81;99915.66;2043146;29;20175;-69
2022/05/18 02:02:17;;;;;;;16.27;15.13;;;;;;;7.15;84.01;99914.03;2043528;29;20657;-69
2022/05/18 02:03:19;;;;;;;16.35;14.88;;;;;;;7.07;84.39;99920.59;2043177;29;20206;-70
2022/05/18 02:04:23;;;;;;;15.80;14.70;;;;;;;7.01;85.01;99911.78;2043499;29;20186;-69
2022/05/18 02:05:25;;;;;;;15.90;14.90;;;;;;;6.95;85.55;99920.75;2042094;29;20234;-69
2022/05/18 02:06:29;;;;;;;16.88;15.77;;;;;;;6.92;86.20;99912.50;2034899;29;20228;-69
2022/05/18 02:07:30;;;;;;;17.02;15.80;;;;;;;6.87;87.20;99912.44;2035544;29;20196;-70
2022/05/18 02:08:32;;;;;;;17.00;15.70;;;;;;;6.82;88.43;99901.78;2043319;29;20199;-69
2022/05/18 02:09:35;;;;;;;17.40;16.00;;;;;;;6.75;89.62;99902.78;2034919;29;20239;-69
2022/05/18 02:10:37;;;;;;;16.42;15.30;;;;;;;6.77;89.21;99908.63;2034014;29;20215;-68
2022/05/18 02:11:39;;;;;;;16.67;15.48;;;;;;;6.70;89.18;99908.03;2034877;29;20211;-69
2022/05/18 02:12:41;;;;;;;17.30;15.60;;;;;;;6.68;88.72;99907.47;2042803;29;20187;-69
2022/05/18 02:13:43;;;;;;;15.88;14.82;;;;;;;6.66;89.01;99911.44;2043391;29;20199;-69
2022/05/18 02:14:45;;;;;;;17.30;15.68;;;;;;;6.62;88.67;99916.44;2043338;29;20222;-69
2022/05/18 02:15:48;;;;;;;16.52;15.23;;;;;;;6.62;89.50;99911.13;2042681;29;20202;-69
2022/05/18 02:16:51;;;;;;;16.95;15.45;;;;;;;6.64;90.68;99913.53;2042512;29;20226;-69
2022/05/18 02:17:52;;;;;;;16.02;14.98;;;;;;;6.63;90.98;99903.97;2042967;29;20230;-69
2022/05/18 02:18:54;;;;;;;15.93;14.70;;;;;;;6.61;91.11;99914.03;2043480;29;20187;-70
2022/05/18 02:19:56;;;;;;;16.25;14.75;;;;;;;6.58;90.33;99917.16;2043300;29;20194;-69
2022/05/18 02:20:58;;;;;;;16.42;15.23;;;;;;;6.53;89.74;99920.56;2033630;29;20621;-69
2022/05/18 02:22:00;;;;;;;15.93;14.90;;;;;;;6.47;89.46;99919.72;2035022;29;20536;-70
2022/05/18 02:23:03;;;;;;;16.33;14.90;;;;;;;6.45;89.40;99929.75;2043373;29;20206;-70
2022/05/18 02:24:04;;;;;;;16.70;15.43;;;;;;;6.40;89.97;99929.69;2043271;29;20199;-69
2022/05/18 02:25:08;;;;;;;16.77;15.40;;;;;;;6.35;89.75;99926.19;2034376;29;20204;-69
2022/05/18 02:26:10;;;;;;;16.13;14.98;;;;;;;6.33;90.30;99934.38;2035106;29;20231;-70
2022/05/18 02:27:12;;;;;;;16.75;15.40;;;;;;;6.28;91.62;99923.72;2043310;29;20227;-70
2022/05/18 02:28:13;;;;;;;17.13;15.70;;;;;;;6.38;94.69;99923.84;2034739;29;20299;-70
2022/05/18 02:29:18;;;;;;;16.03;14.83;;;;;;;6.39;95.08;99922.00;2026781;29;20236;-69
2022/05/18 02:30:21;;;;;;;16.02;14.90;;;;;;;6.39;96.34;99924.63;2035390;29;20183;-69
2022/05/18 02:31:23;;;;;;;16.17;15.00;;;;;;;6.34;97.36;99921.91;2043443;29;20203;-69
2022/05/18 02:32:25;;;;;;;16.38;15.18;;;;;;;6.32;99.78;99927.47;2034095;29;20219;-68
2022/05/18 02:33:28;;;;;;;16.98;15.63;;;;;;;6.54;99.90;99919.53;2035241;29;20188;-69
2022/05/18 02:34:29;;;;;;;17.25;15.60;;;;;;;6.56;100.00;99933.31;2043281;29;20608;-68
2022/05/18 02:35:30;;;;;;;16.70;15.20;;;;;;;6.45;100.00;99927.13;2043162;29;20239;-69
2022/05/18 02:36:34;;;;;;;17.25;15.98;;;;;;;6.39;100.00;99925.44;2042977;29;20226;-69
2022/05/18 02:37:36;;;;;;;17.25;15.95;;;;;;;6.32;100.00;99930.13;2034204;29;20231;-69
2022/05/18 02:38:37;;;;;;;17.15;15.75;;;;;;;6.26;100.00;99927.69;2034792;29;20712;-69
2022/05/18 02:39:39;;;;;;;16.33;15.13;;;;;;;6.21;100.00;99925.75;2034601;29;20200;-70
2022/05/18 02:40:42;;;;;;;16.70;15.20;;;;;;;6.16;100.00;99933.63;2035052;29;20349;-69
2022/05/18 02:41:44;;;;;;;15.32;14.25;;;;;;;6.18;100.00;99932.34;2043165;29;20249;-68
2022/05/18 02:42:45;;;;;;;16.05;14.68;;;;;;;6.14;100.00;99936.53;2034671;29;20203;-69
2022/05/18 02:43:47;;;;;;;16.30;15.00;;;;;;;6.12;100.00;99935.16;2034855;29;20192;-69
2022/05/18 02:44:53;;;;;;;15.68;14.32;;;;;;;6.05;100.00;99943.28;2043126;29;20198;-69
2022/05/18 02:46:02;;;;;;;16.13;14.93;;;;;;;6.03;100.00;99944.59;2043139;29;20179;-69
2022/05/18 02:47:03;;;;;;;15.77;14.57;;;;;;;5.98;100.00;99940.00;2034598;29;20231;-69
2022/05/18 02:48:07;;;;;;;16.30;14.85;;;;;;;5.95;100.00;99948.44;2034753;29;20244;-69
2022/05/18 02:49:08;;;;;;;15.65;14.55;;;;;;;5.92;100.00;99948.94;2043061;29;20718;-69
2022/05/18 02:50:11;;;;;;;17.40;16.00;;;;;;;5.87;100.00;99952.28;2043287;29;20558;-68
2022/05/18 02:51:14;;;;;;;16.48;15.23;;;;;;;5.85;100.00;99948.28;2033994;29;20706;-69
2022/05/18 02:52:17;;;;;;;17.25;15.20;;;;;;;5.81;100.00;99953.22;2035137;29;20212;-69
2022/05/18 02:53:18;;;;;;;17.55;16.00;;;;;;;5.80;100.00;99961.44;2042174;29;20221;-69
2022/05/18 02:56:59;;;;;;;16.83;15.60;;;;;;;5.71;100.00;99962.88;2042338;29;20219;-70
2022/05/18 02:58:01;;;;;;;17.17;15.50;;;;;;;5.68;100.00;99959.69;2034470;29;20208;-69
2022/05/18 02:59:05;;;;;;;17.10;15.80;;;;;;;5.68;100.00;99964.97;2034805;29;20195;-69
2022/05/18 03:00:09;;;;;;;17.73;15.30;;;;;;;5.67;100.00;99965.22;2043182;29;20202;-69
2022/05/18 03:01:13;;;;;;;16.40;15.30;;;;;;;5.66;100.00;99964.41;2042100;29;20689;-69
2022/05/18 03:02:14;;;;;;;17.17;15.50;;;;;;;5.65;100.00;99968.09;2042372;29;20279;-69
2022/05/18 03:03:16;;;;;;;16.87;15.50;;;;;;;5.69;100.00;99963.13;2042996;29;20191;-69
2022/05/18 03:04:17;;;;;;;17.58;16.17;;;;;;;5.74;100.00;99973.00;2043132;29;20509;-69
2022/05/18 03:05:20;;;;;;;18.10;16.40;;;;;;;5.74;100.00;99970.34;2042996;29;20247;-69
2022/05/18 03:06:26;;;;;;;17.98;16.45;;;;;;;5.86;100.00;99973.72;2042396;29;20694;-70
2022/05/18 03:07:27;;;;;;;17.67;16.30;;;;;;;5.94;100.00;99981.28;2034048;29;20292;-69
2022/05/18 03:08:31;;;;;;;16.80;15.50;;;;;;;5.93;100.00;99982.31;2034497;29;20208;-69
2022/05/18 03:09:33;;;;;;;17.48;16.08;;;;;;;5.92;100.00;99981.53;2034824;29;20236;-69
2022/05/18 03:10:36;;;;;;;25.30;16.75;;;;;;;5.94;100.00;99976.78;2034524;29;20196;-68
2022/05/18 03:11:36;;;;;;;17.42;15.90;;;;;;;5.93;100.00;99990.28;2033692;29;20203;-70
2022/05/18 03:12:39;;;;;;;17.17;15.77;;;;;;;5.97;100.00;99991.38;2033794;29;20199;-69
2022/05/18 03:13:40;;;;;;;18.00;16.38;;;;;;;6.02;100.00;99988.81;2034640;29;20219;-69
2022/05/18 03:14:41;;;;;;;17.97;16.13;;;;;;;6.22;100.00;100005.00;2042903;29;20195;-69
2022/05/18 03:15:46;;;;;;;17.25;15.73;;;;;;;6.31;99.23;100015.19;2042983;29;20445;-68
2022/05/18 03:16:49;;;;;;;17.25;15.88;;;;;;;6.36;98.04;100015.25;2034092;29;20206;-69
2022/05/18 03:17:49;;;;;;;17.60;16.20;;;;;;;6.40;96.93;100021.66;2026284;29;20295;-69
2022/05/18 03:18:52;;;;;;;19.20;16.10;;;;;;;6.46;94.34;100018.03;2034444;29;20192;-69
2022/05/18 03:19:54;;;;;;;18.23;16.33;;;;;;;6.44;94.70;100022.78;2042824;29;20195;-68
2022/05/18 03:23:38;;;;;;;16.92;15.52;;;;;;;6.38;95.95;100016.59;2033972;29;20328;-69
2022/05/18 03:24:40;;;;;;;17.42;15.93;;;;;;;6.43;96.08;100013.25;2034458;29;20195;-70
2022/05/18 03:25:40;;;;;;;17.00;15.70;;;;;;;6.52;94.21;100022.38;2034332;29;20204;-70
2022/05/18 03:26:44;;;;;;;17.73;16.10;;;;;;;6.46;94.75;100028.66;2034420;29;20215;-69
2022/05/18 03:27:45;;;;;;;18.33;16.48;;;;;;;6.39;96.05;100023.50;2042777;29;20701;-70
2022/05/18 03:28:49;;;;;;;17.50;16.10;;;;;;;6.32;97.25;100019.44;2042735;29;20641;-69
2022/05/18 03:29:51;;;;;;;16.45;15.25;;;;;;;6.26;98.93;100018.56;2042758;29;20199;-69
2022/05/18 03:30:55;;;;;;;17.08;15.27;;;;;;;6.22;100.00;100012.94;2042768;29;20729;-70
2022/05/18 03:31:56;;;;;;;17.15;15.90;;;;;;;6.20;100.00;100011.59;2034233;29;20733;-69
2022/05/18 03:32:57;;;;;;;20.03;16.50;;;;;;;6.15;100.00;100012.31;2034298;29;20591;-69
2022/05/18 03:33:58;;;;;;;17.67;16.23;;;;;;;6.18;100.00;100025.09;2042838;29;20198;-69
2022/05/18 03:35:01;;;;;;;16.93;15.73;;;;;;;6.14;100.00;100023.16;2034044;29;20278;-69
2022/05/18 03:36:02;;;;;;;17.80;16.17;;;;;;;6.12;100.00;100027.91;2033921;29;20718;-70
2022/05/18 03:37:08;;;;;;;17.38;16.08;;;;;;;6.09;100.00;100023.91;2042710;29;20207;-68
2022/05/18 03:38:09;;;;;;;17.50;16.20;;;;;;;6.04;100.00;100021.16;2034259;29;20191;-69
2022/05/18 03:39:11;;;;;;;17.90;16.37;;;;;;;6.02;100.00;100025.09;2034272;29;20708;-69
2022/05/18 03:40:12;;;;;;;17.25;15.75;;;;;;;6.00;100.00;100019.25;2042056;29;20219;-69
2022/05/18 03:41:14;;;;;;;16.95;15.65;;;;;;;5.99;100.00;100017.63;2042145;29;20712;-67
2022/05/18 03:42:16;;;;;;;17.52;16.17;;;;;;;5.97;100.00;100019.72;2042105;29;20195;-70
2022/05/18 03:43:17;;;;;;;17.38;15.68;;;;;;;5.96;100.00;100024.22;2042738;29;20202;-70
2022/05/18 03:44:21;;;;;;;17.10;15.77;;;;;;;5.94;100.00;100028.94;2042084;29;20196;-69
2022/05/18 03:45:23;;;;;;;17.20;16.00;;;;;;;5.92;100.00;100029.19;2042148;29;20198;-70
2022/05/18 03:46:26;;;;;;;17.47;16.00;;;;;;;5.89;100.00;100032.28;2042774;29;20274;-70
2022/05/18 03:47:26;;;;;;;16.70;15.55;;;;;;;5.91;100.00;100034.75;2034087;29;20558;-69
2022/05/18 03:48:30;;;;;;;17.23;15.73;;;;;;;5.89;100.00;100034.13;2034231;29;20231;-69
2022/05/18 03:49:31;;;;;;;16.80;15.45;;;;;;;5.86;100.00;100029.31;2033572;29;20211;-69
2022/05/18 03:50:37;;;;;;;16.93;15.53;;;;;;;5.99;100.00;100038.81;2034362;29;20199;-69
2022/05/18 03:51:38;;;;;;;17.38;15.70;;;;;;;5.97;100.00;100030.31;2041676;29;20223;-70
2022/05/18 03:52:39;;;;;;;16.77;15.50;;;;;;;5.96;100.00;100037.44;2042024;29;20190;-75
2022/05/18 03:53:40;;;;;;;17.55;16.10;;;;;;;5.90;100.00;100033.91;2034052;29;20455;-69
2022/05/18 03:54:44;;;;;;;16.90;15.70;;;;;;;5.91;100.00;100040.03;2034497;29;20223;-69
2022/05/18 03:55:45;;;;;;;16.95;15.45;;;;;;;5.89;100.00;100039.41;2033586;29;20514;-70
2022/05/18 03:56:47;;;;;;;17.10;15.80;;;;;;;5.89;100.00;100036.78;2034100;29;20196;-70
2022/05/18 03:57:48;;;;;;;18.48;16.17;;;;;;;5.88;100.00;100038.63;2042462;29;20229;-69
2022/05/18 03:58:49;;;;;;;18.00;16.40;;;;;;;5.87;100.00;100041.50;2034031;29;20198;-69
2022/05/18 03:59:50;;;;;;;17.38;16.10;;;;;;;5.87;100.00;100039.66;2025454;29;20220;-69
2022/05/18 04:00:53;;;;;;;17.83;15.87;;;;;;;5.88;100.00;100043.91;2026281;29;20759;-69
2022/05/18 04:01:57;;;;;;;17.00;15.65;;;;;;;5.91;100.00;100050.63;2034399;29;20204;-70
2022/05/18 04:02:58;;;;;;;16.80;15.45;;;;;;;5.94;100.00;100047.50;2042470;29;20598;-70
2022/05/18 04:04:00;;;;;;;17.40;16.02;;;;;;;5.93;100.00;100052.00;2042485;29;20201;-70
2022/05/18 04:05:01;;;;;;;17.63;16.00;;;;;;;5.96;100.00;100058.63;2042500;29;20199;-69
2022/05/18 04:06:03;;;;;;;18.07;16.40;;;;;;;6.03;100.00;100055.84;2041985;29;20191;-69
2022/05/18 04:07:05;;;;;;;18.30;16.80;;;;;;;6.05;100.00;100061.69;2041830;29;20210;-70
2022/05/18 04:08:06;;;;;;;18.70;16.85;;;;;;;6.07;100.00;100064.91;2041897;29;20714;-69
2022/05/18 04:09:11;;;;;;;18.55;16.60;;;;;;;6.07;100.00;100068.34;2042629;29;20191;-69
2022/05/18 04:10:12;;;;;;;18.38;16.83;;;;;;;6.09;100.00;100058.34;2034060;29;20563;-70
2022/05/18 04:11:16;;;;;;;17.38;15.98;;;;;;;6.09;100.00;100060.97;2034344;29;20191;-69
2022/05/18 04:12:17;;;;;;;17.42;15.98;;;;;;;6.33;100.00;100077.47;2033978;29;20250;-69
2022/05/18 04:13:21;;;;;;;17.70;16.05;;;;;;;6.56;97.44;100096.91;2025883;29;20205;-69
2022/05/18 04:14:23;;;;;;;18.95;16.50;;;;;;;6.62;94.54;100096.75;2034497;29;20248;-69
2022/05/18 04:15:24;;;;;;;17.25;15.80;;;;;;;6.70;93.52;100098.19;2041358;29;20219;-69
2022/05/18 04:16:26;;;;;;;18.02;16.27;;;;;;;6.80;91.86;100101.75;2042068;29;20248;-69
2022/05/18 04:17:28;;;;;;;17.65;16.30;;;;;;;6.84;90.86;100104.72;2042411;29;20191;-70
2022/05/18 04:18:32;;;;;;;17.10;15.73;;;;;;;6.82;91.29;100106.00;2042390;29;20606;-69
2022/05/18 04:19:33;;;;;;;17.20;15.73;;;;;;;6.78;91.46;100098.56;2042360;29;20195;-70
2022/05/18 04:20:34;;;;;;;17.23;15.80;;;;;;;6.80;90.65;100103.59;2042353;29;20266;-69
2022/05/18 04:21:36;;;;;;;16.77;15.52;;;;;;;6.74;91.29;100094.78;2033544;29;20825;-69
2022/05/18 04:22:37;;;;;;;17.48;16.08;;;;;;;6.72;96.33;100082.81;2025831;29;20212;-69
2022/05/18 04:23:41;;;;;;;16.10;14.95;;;;;;;6.77;94.76;100093.47;2033302;29;20195;-68
2022/05/18 04:24:41;;;;;;;17.15;15.77;;;;;;;6.80;91.49;100106.25;2041370;29;20202;-69
2022/05/18 04:25:46;;;;;;;16.43;15.00;;;;;;;6.75;91.10;100101.69;2041801;29;20712;-69
2022/05/18 04:26:47;;;;;;;17.65;15.02;;;;;;;6.84;88.49;100107.38;2033831;29;20607;-70
2022/05/18 04:27:49;;;;;;;16.20;14.90;;;;;;;6.85;89.25;100105.50;2034213;29;20651;-69
2022/05/18 04:28:51;;;;;;;16.70;15.18;;;;;;;6.81;89.73;100107.88;2042464;29;20206;-69
2022/05/18 04:29:53;;;;;;;16.67;15.30;;;;;;;6.80;91.25;100104.41;2042461;29;20198;-69
2022/05/18 04:30:55;;;;;;;16.08;14.88;;;;;;;6.77;92.68;100099.56;2033005;29;20292;-69
2022/05/18 04:31:58;;;;;;;17.80;15.30;;;;;;;6.86;95.86;100094.66;2041723;29;20246;-69
2022/05/18 04:33:02;;;;;;;17.10;15.63;;;;;;;6.84;93.80;100101.25;2049512;29;20190;-69
2022/05/18 04:34:04;;;;;;;17.15;15.82;;;;;;;6.82;94.54;100098.06;2033869;29;20287;-69
2022/05/18 04:35:06;;;;;;;17.58;15.82;;;;;;;6.82;97.43;100088.25;2025280;29;20244;-68
2022/05/18 04:36:09;;;;;;;19.38;15.45;;;;;;;6.80;98.76;100083.19;2023686;29;20208;-69
2022/05/18 04:37:14;;;;;;;17.17;15.48;;;;;;;6.78;99.99;100082.63;2026210;29;20185;-69
2022/05/18 04:38:16;;;;;;;17.02;15.90;;;;;;;6.77;100.00;100085.50;2026785;29;20212;-69
2022/05/18 04:39:21;;;;;;;16.85;15.30;;;;;;;6.77;99.87;100094.28;2026596;29;20203;-69
2022/05/18 04:40:24;;;;;;;16.63;15.23;;;;;;;6.75;97.80;100096.38;2026655;29;20742;-69
2022/05/18 04:41:25;;;;;;;17.48;15.75;;;;;;;6.74;94.79;100109.88;2026791;29;20193;-69
2022/05/18 04:42:27;;;;;;;16.55;15.30;;;;;;;6.72;95.05;100104.03;2025945;29;20675;-69
2022/05/18 04:43:32;;;;;;;17.20;15.52;;;;;;;6.72;95.81;100104.84;2026073;29;20212;-69
2022/05/18 04:44:33;;;;;;;16.42;15.07;;;;;;;6.82;94.79;100106.00;2033444;29;20259;-69
2022/05/18 04:45:36;;;;;;;17.77;16.33;;;;;;;7.01;90.60;100116.06;2026593;29;20667;-69
2022/05/18 04:46:40;;;;;;;18.80;15.65;;;;;;;7.03;91.74;100115.81;2026546;29;20208;-69
2022/05/18 04:47:42;;;;;;;17.33;15.77;;;;;;;6.99;92.10;100114.72;2026615;29;20277;-69
2022/05/18 04:48:45;;;;;;;15.98;14.80;;;;;;;6.99;92.98;100109.41;2033701;29;20714;-69
2022/05/18 04:49:45;;;;;;;16.95;15.55;;;;;;;7.01;92.96;100109.97;2025868;29;20204;-69
2022/05/18 04:50:48;;;;;;;16.40;15.03;;;;;;;7.07;91.93;100124.91;2025924;29;20197;-70
2022/05/18 04:51:51;;;;;;;16.85;15.25;;;;;;;7.14;89.32;100136.16;2026276;29;20232;-69
2022/05/18 04:52:53;;;;;;;17.38;15.73;;;;;;;7.20;88.43;100137.00;2026481;29;20199;-68
2022/05/18 04:53:55;;;;;;;17.60;15.80;;;;;;;7.26;86.77;100139.47;2026710;29;20674;-68
2022/05/18 04:54:56;;;;;;;17.00;15.70;;;;;;;7.30;87.22;100135.28;2033602;29;20215;-68